New Franklin, Missouri
Current Conditions -  °F | °C
As of 3:35 AM on Sunday 23 Nov 2014 (Local Time) from KVER Reporting Station
Overcast Overcast  
Wind Chill: 55°   Ceiling: 8000
Heat Index: 55°   Visibility: 10mi
Dew Point: 51°   Wind: 8mph
Humidity: 85%   Direction: 140°SE
Pressure: 29.64"   Gusts: NA
Location:  39.02°N, 92.74°W
Report Text: KVER 230935Z AUTO 14007KT 10SM OVC080 13/10 A2964 RMK AO2 T01280103
Loading
Personal Weather Stations






























Interactive Weather Map New forecast layout! Learn more

10-Day Weather Forecast

Advertisements
Track Severe Weather on mobile